Time;durP1;ratioP1;P1;durP2;ratioP2;P2;SDS_P1;SDS_P2;PMS_P1;PMS_P2;Temp;Humidity;BMP_temperature;BMP_pressure;BME280_temperature;BME280_humidity;BME280_pressure;Samples;Min_cycle;Max_cycle;Signal;HPM_P1;HPM_P2
2021/04/25 00:03:51;;;;;;;10.45;8.70;;;;;;;3.93;60.97;100732.53;10601658;27;20066;-72
2021/04/25 00:08:53;;;;;;;10.20;9.07;;;;;;;3.61;61.69;100730.59;10637849;27;20377;-73
2021/04/25 00:13:54;;;;;;;11.45;7.93;;;;;;;3.22;62.66;100731.13;10639335;27;20394;-73
2021/04/25 00:18:58;;;;;;;11.32;9.35;;;;;;;3.14;62.88;100728.44;10617823;27;20054;-72
2021/04/25 00:24:03;;;;;;;10.60;8.45;;;;;;;3.42;63.26;100718.31;10636414;27;20054;-73
2021/04/25 00:29:04;;;;;;;10.30;8.27;;;;;;;3.42;63.03;100713.13;10636300;27;20081;-73
2021/04/25 00:34:06;;;;;;;12.65;8.70;;;;;;;3.40;62.58;100714.81;10617265;27;20104;-73
2021/04/25 00:39:07;;;;;;;9.32;7.78;;;;;;;3.25;62.38;100715.56;10636666;27;20194;-73
2021/04/25 00:44:10;;;;;;;9.23;8.18;;;;;;;2.89;63.57;100716.09;10616985;27;20130;-74
2021/04/25 00:49:11;;;;;;;8.60;7.72;;;;;;;3.17;62.84;100701.63;10635239;27;20484;-73
2021/04/25 00:54:15;;;;;;;10.63;6.97;;;;;;;3.12;62.77;100703.31;10634966;27;20046;-72
2021/04/25 00:59:17;;;;;;;9.73;6.95;;;;;;;2.60;64.03;100702.78;10634263;27;20069;-74
2021/04/25 01:04:18;;;;;;;7.82;7.00;;;;;;;2.48;64.44;100696.63;10634157;27;20441;-71
2021/04/25 01:09:20;;;;;;;8.15;6.93;;;;;;;2.60;64.41;100697.59;10615157;27;20058;-72
2021/04/25 01:14:21;;;;;;;8.32;6.70;;;;;;;3.01;63.68;100687.63;10632985;27;20050;-73
2021/04/25 01:19:23;;;;;;;7.88;7.07;;;;;;;2.46;64.70;100693.13;10614720;27;20416;-73
2021/04/25 01:24:24;;;;;;;8.55;6.60;;;;;;;2.77;64.23;100691.72;10632821;27;20043;-73
2021/04/25 01:29:26;;;;;;;9.75;8.80;;;;;;;2.20;65.73;100728.25;10632364;27;20046;-72
2021/04/25 01:34:27;;;;;;;14.32;11.32;;;;;;;2.28;67.38;100743.06;10633363;27;20043;-73
2021/04/25 01:39:30;;;;;;;12.05;10.35;;;;;;;2.65;66.90;100740.03;10633277;27;20039;-73
2021/04/25 01:44:31;;;;;;;11.90;10.80;;;;;;;2.58;66.97;100752.09;10630245;27;20068;-73
2021/04/25 01:49:32;;;;;;;10.93;9.80;;;;;;;2.90;65.42;100731.69;10612235;27;20082;-73
2021/04/25 01:54:34;;;;;;;10.38;9.45;;;;;;;2.62;67.01;100734.84;10630292;27;20094;-72
2021/04/25 01:59:35;;;;;;;10.25;9.23;;;;;;;2.99;65.33;100729.16;10612543;27;20377;-73
2021/04/25 02:04:36;;;;;;;11.80;9.18;;;;;;;3.02;65.30;100733.53;10612463;27;20063;-72
2021/04/25 02:09:38;;;;;;;8.57;7.70;;;;;;;3.34;63.82;100722.56;10612923;27;20043;-73
2021/04/25 02:14:39;;;;;;;19.45;8.43;;;;;;;3.15;65.18;100724.16;10630147;27;20115;-73
2021/04/25 02:19:40;;;;;;;19.85;8.07;;;;;;;3.33;64.61;100711.31;10630655;27;20035;-73
2021/04/25 02:24:41;;;;;;;8.32;7.30;;;;;;;3.51;63.88;100720.97;10611372;27;20053;-73
2021/04/25 02:29:42;;;;;;;8.93;7.47;;;;;;;3.71;62.79;100705.53;10629768;27;20027;-72
2021/04/25 02:34:44;;;;;;;11.35;9.75;;;;;;;3.98;62.35;100700.47;10629886;27;20043;-72
2021/04/25 02:39:45;;;;;;;10.43;9.15;;;;;;;3.93;61.58;100704.78;10628844;27;20035;-72
2021/04/25 02:44:46;;;;;;;9.40;8.25;;;;;;;3.92;61.60;100697.84;10628774;27;20130;-73
2021/04/25 02:49:48;;;;;;;11.63;9.18;;;;;;;3.88;62.67;100696.09;10629135;28;20066;-73
2021/04/25 02:54:49;;;;;;;8.73;7.88;;;;;;;3.65;63.30;100706.34;10628721;28;20463;-73
2021/04/25 02:59:50;;;;;;;8.77;7.95;;;;;;;3.66;63.57;100699.41;10628616;28;20071;-73
2021/04/25 03:04:51;;;;;;;8.55;7.47;;;;;;;3.75;63.46;100696.88;10610227;28;20047;-73
2021/04/25 03:09:52;;;;;;;8.70;7.55;;;;;;;3.73;63.21;100694.28;10610368;28;20097;-72
2021/04/25 03:14:54;;;;;;;11.45;7.70;;;;;;;3.94;62.56;100693.56;10627561;28;20047;-72
2021/04/25 03:19:55;;;;;;;8.52;6.97;;;;;;;3.85;62.69;100688.31;10628860;28;20054;-72
2021/04/25 03:24:56;;;;;;;14.23;7.78;;;;;;;4.02;63.02;100691.84;10592747;28;20051;-72
2021/04/25 03:29:57;;;;;;;8.95;8.05;;;;;;;3.98;63.00;100684.88;10609325;28;20047;-72
2021/04/25 03:34:59;;;;;;;8.55;7.35;;;;;;;4.03;63.37;100685.78;10627264;28;20044;-72
2021/04/25 03:40:00;;;;;;;8.80;7.13;;;;;;;4.13;62.50;100678.03;10627212;28;20062;-72
2021/04/25 03:45:06;;;;;;;8.68;7.43;;;;;;;3.93;62.69;100675.31;10627570;28;20039;-73
2021/04/25 03:50:08;;;;;;;8.73;7.68;;;;;;;3.87;62.95;100685.69;10627942;28;20504;-72
2021/04/25 03:55:11;;;;;;;9.38;8.25;;;;;;;4.12;64.10;100687.56;10631355;27;20449;-73
2021/04/25 04:00:15;;;;;;;17.65;9.45;;;;;;;3.95;63.84;100689.22;10635379;27;20042;-72
2021/04/25 04:05:16;;;;;;;8.68;7.90;;;;;;;3.83;64.44;100690.00;10616065;27;20051;-73
2021/04/25 04:10:18;;;;;;;9.35;8.45;;;;;;;4.09;64.20;100686.69;10635009;27;20446;-73
2021/04/25 04:15:19;;;;;;;9.10;8.30;;;;;;;3.85;63.81;100688.31;10634945;27;20059;-73
2021/04/25 04:20:26;;;;;;;;;;;;;;;4.23;63.64;100678.06;10635148;27;20118;-71
2021/04/25 04:25:28;;;;;;;9.80;7.85;;;;;;;4.23;63.75;100692.81;10633731;27;20011;-72
2021/04/25 04:30:31;;;;;;;10.63;8.35;;;;;;;4.38;62.81;100689.41;10615712;27;20062;-73
2021/04/25 04:35:33;;;;;;;10.32;9.00;;;;;;;3.96;64.29;100690.94;10614277;27;20493;-72
2021/04/25 04:40:34;;;;;;;10.13;7.38;;;;;;;3.92;64.14;100704.78;10631794;27;20104;-72
2021/04/25 04:45:35;;;;;;;9.15;8.18;;;;;;;4.32;62.96;100692.00;10631779;27;20043;-72
2021/04/25 04:50:36;;;;;;;9.27;8.30;;;;;;;4.00;65.06;100697.91;10630437;27;20458;-72
2021/04/25 04:55:38;;;;;;;10.00;8.32;;;;;;;3.92;65.04;100692.66;10595016;27;20061;-72
2021/04/25 05:00:40;;;;;;;9.73;8.73;;;;;;;3.92;65.10;100707.41;10630422;27;20064;-72
2021/04/25 05:05:42;;;;;;;8.45;7.28;;;;;;;4.20;64.35;100701.47;10629618;27;20059;-72
2021/04/25 05:10:43;;;;;;;8.75;7.88;;;;;;;4.38;63.95;100712.81;10630398;27;20043;-72
2021/04/25 05:15:44;;;;;;;10.40;8.32;;;;;;;4.36;63.78;100706.75;10611607;27;20047;-70
2021/04/25 05:20:45;;;;;;;12.52;9.05;;;;;;;4.35;63.59;100726.72;10630119;27;20500;-70
2021/04/25 05:25:47;;;;;;;10.95;8.77;;;;;;;4.60;63.20;100729.41;10610312;27;20496;-70
2021/04/25 05:30:48;;;;;;;9.00;8.20;;;;;;;4.73;62.15;100726.84;10628684;27;20136;-70
2021/04/25 05:35:49;;;;;;;8.63;7.70;;;;;;;4.50;62.91;100723.28;10630336;27;20070;-71
2021/04/25 05:40:51;;;;;;;9.63;8.73;;;;;;;4.57;62.73;100732.03;10630511;27;20439;-72
2021/04/25 05:45:52;;;;;;;8.60;7.60;;;;;;;4.67;62.04;100732.03;10628517;27;20045;-70
2021/04/25 05:50:53;;;;;;;9.48;8.02;;;;;;;4.53;62.10;100718.97;10628316;27;20412;-71
2021/04/25 05:55:55;;;;;;;9.55;8.57;;;;;;;4.54;63.06;100725.91;10627626;27;20043;-71
2021/04/25 06:00:56;;;;;;;9.02;8.13;;;;;;;5.29;60.50;100730.44;10628611;27;20106;-72
2021/04/25 06:05:57;;;;;;;8.93;8.02;;;;;;;5.00;61.68;100723.47;10593038;27;20089;-71
2021/04/25 06:10:59;;;;;;;8.00;7.30;;;;;;;5.20;61.49;100730.44;10609725;27;20095;-71
2021/04/25 06:16:00;;;;;;;7.85;7.00;;;;;;;5.36;61.56;100733.91;10627650;27;20047;-71
2021/04/25 06:21:01;;;;;;;7.28;6.57;;;;;;;5.49;60.84;100739.16;10610563;27;20091;-70
2021/04/25 06:26:02;;;;;;;8.13;7.25;;;;;;;5.65;60.03;100739.13;10609802;27;20047;-71
2021/04/25 06:31:04;;;;;;;8.10;6.40;;;;;;;5.69;59.71;100728.69;10628192;27;20043;-71
2021/04/25 06:36:06;;;;;;;10.30;7.25;;;;;;;5.68;60.19;100732.19;10610145;27;20051;-70
2021/04/25 06:41:07;;;;;;;10.77;8.02;;;;;;;5.70;59.88;100721.75;10594381;27;20092;-71
2021/04/25 06:46:09;;;;;;;7.10;6.40;;;;;;;6.11;58.30;100736.47;10610030;27;20046;-71
2021/04/25 06:51:10;;;;;;;7.95;6.93;;;;;;;6.49;57.99;100742.47;10628609;27;20483;-70
2021/04/25 06:56:12;;;;;;;7.15;6.47;;;;;;;6.86;56.27;100738.81;10629235;28;20065;-70
2021/04/25 07:01:13;;;;;;;9.07;7.38;;;;;;;6.76;56.82;100751.06;10612305;28;20035;-72
2021/04/25 07:06:16;;;;;;;8.15;7.35;;;;;;;7.25;56.40;100756.00;10612373;28;20053;-71
2021/04/25 07:11:18;;;;;;;7.03;6.32;;;;;;;7.08;55.86;100753.50;10629118;28;20039;-72
2021/04/25 07:16:19;;;;;;;7.57;6.25;;;;;;;7.15;55.13;100749.13;10611932;28;20051;-70
2021/04/25 07:21:20;;;;;;;7.32;6.47;;;;;;;7.49;53.59;100755.84;10630375;28;20046;-71
2021/04/25 07:26:22;;;;;;;6.40;5.85;;;;;;;7.06;53.70;100750.91;10630107;28;20047;-71
2021/04/25 07:31:23;;;;;;;5.35;4.60;;;;;;;7.68;50.28;100725.16;10635601;27;20523;-71
2021/04/25 07:36:26;;;;;;;6.88;6.18;;;;;;;8.08;51.42;100723.03;10618795;27;20066;-71
2021/04/25 07:41:28;;;;;;;5.38;4.88;;;;;;;7.93;49.76;100722.31;10636347;27;20061;-73
2021/04/25 07:46:30;;;;;;;8.63;3.95;;;;;;;8.17;47.30;100722.06;10601336;27;20039;-70
2021/04/25 07:51:31;;;;;;;4.53;4.13;;;;;;;8.36;47.52;100717.47;10637059;27;20039;-72
2021/04/25 07:56:32;;;;;;;4.10;2.90;;;;;;;8.58;43.43;100718.97;10637166;27;20054;-72
2021/04/25 08:01:34;;;;;;;4.30;3.38;;;;;;;8.34;47.41;100727.13;10618023;27;20130;-72
2021/04/25 08:06:35;;;;;;;3.67;2.80;;;;;;;8.72;43.84;100724.06;10617665;27;20077;-71
2021/04/25 08:11:37;;;;;;;4.38;2.50;;;;;;;8.74;43.86;100734.50;10634968;27;20050;-72
2021/04/25 08:16:38;;;;;;;3.97;2.83;;;;;;;8.65;43.82;100745.13;10635714;27;20070;-71
2021/04/25 08:21:40;;;;;;;5.25;3.15;;;;;;;9.26;43.00;100746.91;10635891;27;20039;-71
2021/04/25 08:26:41;;;;;;;4.15;3.58;;;;;;;8.82;43.53;100745.78;10617842;27;20058;-70
2021/04/25 08:31:43;;;;;;;3.65;2.95;;;;;;;9.06;43.05;100744.56;10616708;27;20107;-72
2021/04/25 08:36:44;;;;;;;3.55;2.53;;;;;;;9.47;42.36;100743.06;10616722;27;20134;-71
2021/04/25 08:41:47;;;;;;;4.60;3.08;;;;;;;9.59;42.18;100745.50;10633480;27;20149;-72
2021/04/25 08:46:50;;;;;;;3.85;2.88;;;;;;;10.18;40.29;100742.69;10633765;27;20059;-71
2021/04/25 08:51:53;;;;;;;4.95;2.53;;;;;;;10.54;40.48;100747.28;10633323;27;20039;-72
2021/04/25 08:56:55;;;;;;;4.32;3.42;;;;;;;10.78;39.89;100732.75;10633135;27;20039;-71
2021/04/25 09:01:57;;;;;;;4.45;2.88;;;;;;;11.50;40.34;100727.59;10615817;27;20043;-71
2021/04/25 09:07:04;;;;;;;5.60;2.97;;;;;;;11.77;37.04;100726.03;10632424;27;20055;-71
2021/04/25 09:12:06;;;;;;;4.30;2.78;;;;;;;11.69;40.60;100726.25;10617218;27;20059;-71
2021/04/25 09:17:10;;;;;;;6.45;3.28;;;;;;;11.40;38.00;100723.47;10626709;27;20042;-72
2021/04/25 09:22:12;;;;;;;5.20;2.97;;;;;;;11.77;38.63;100716.38;10598002;27;20051;-72
2021/04/25 09:27:34;;;;;;;3.58;2.53;;;;;;;11.61;37.94;100718.56;10589668;28;20096;-72
2021/04/25 09:32:37;;;;;;;5.47;2.70;;;;;;;12.14;37.73;100710.19;10590008;28;20042;-71
2021/04/25 09:37:42;;;;;;;5.38;3.30;;;;;;;12.15;37.40;100711.03;10572062;28;20047;-73
2021/04/25 09:43:00;;;;;;;3.60;3.00;;;;;;;11.48;37.25;100703.09;10590691;28;20115;-72
2021/04/25 09:48:17;;;;;;;4.20;2.58;;;;;;;11.87;37.75;100701.25;10591814;28;20061;-72
2021/04/25 09:53:19;;;;;;;5.93;3.03;;;;;;;11.91;38.53;100702.91;10569959;28;20039;-71
2021/04/25 09:58:20;;;;;;;4.40;2.90;;;;;;;11.99;36.16;100700.03;10588420;28;20035;-71
2021/04/25 10:03:26;;;;;;;3.63;3.00;;;;;;;12.35;37.63;100699.03;10570671;28;20031;-73
2021/04/25 10:08:29;;;;;;;3.75;3.03;;;;;;;12.68;38.40;100698.09;10589608;28;20043;-73
2021/04/25 10:13:36;;;;;;;4.03;2.50;;;;;;;13.38;35.87;100694.16;10587652;28;20035;-72
2021/04/25 10:18:37;;;;;;;190.65;13.68;;;;;;;13.23;35.35;100693.75;10570160;28;20070;-71
2021/04/25 10:23:39;;;;;;;3.17;2.15;;;;;;;13.53;36.62;100694.53;10586305;28;20035;-72
2021/04/25 10:29:08;;;;;;;4.95;2.40;;;;;;;12.92;33.31;100691.19;10587042;28;20457;-69
2021/04/25 10:34:21;;;;;;;6.75;2.45;;;;;;;12.50;33.46;100692.44;10588150;28;20041;-70
2021/04/25 10:45:03;;;;;;;3.05;2.08;;;;;;;11.79;35.62;100698.78;10569177;28;20059;-70
2021/04/25 10:50:13;;;;;;;3.80;2.50;;;;;;;11.98;37.07;100706.22;10570278;28;20048;-72
2021/04/25 10:55:19;;;;;;;3.67;2.70;;;;;;;11.71;36.77;100713.91;10586631;28;20043;-71
2021/04/25 11:00:42;;;;;;;4.80;4.13;;;;;;;11.45;38.53;100703.16;10587399;28;20522;-72
2021/04/25 11:05:46;;;;;;;5.13;2.90;;;;;;;11.21;38.21;100702.88;10594572;27;20104;-72
2021/04/25 11:10:57;;;;;;;5.63;2.85;;;;;;;11.32;37.85;100706.09;10595083;28;20039;-72
2021/04/25 11:16:28;;;;;;;3.17;2.45;;;;;;;11.03;37.35;100714.69;10564414;22;20044;-72
2021/04/25 11:26:37;;;;;;;3.63;2.35;;;;;;;10.59;38.44;100713.88;10548149;28;20099;-71
2021/04/25 11:31:54;;;;;;;9.13;3.03;;;;;;;11.32;38.68;100702.59;10547864;28;20111;-71
2021/04/25 11:37:04;;;;;;;3.88;2.67;;;;;;;12.16;38.13;100692.53;10548238;28;20441;-73
2021/04/25 11:42:07;;;;;;;3.80;2.50;;;;;;;11.76;37.13;100690.09;10546701;28;20447;-72
2021/04/25 11:47:11;;;;;;;3.53;2.20;;;;;;;11.76;36.74;100695.34;10546801;28;20044;-71
2021/04/25 11:52:20;;;;;;;2.33;1.95;;;;;;;12.41;35.90;100700.63;10529042;28;20105;-71
2021/04/25 11:57:22;;;;;;;3.30;1.98;;;;;;;13.54;34.74;100696.25;10547988;28;20500;-72
2021/04/25 12:02:25;;;;;;;3.95;2.28;;;;;;;13.00;33.70;100683.91;10547062;28;20036;-70
2021/04/25 12:07:40;;;;;;;2.80;1.83;;;;;;;12.58;35.94;100693.09;10546610;28;20043;-71
2021/04/25 12:13:03;;;;;;;3.97;2.33;;;;;;;12.03;36.24;100686.75;10528065;28;20102;-71
2021/04/25 12:18:05;;;;;;;3.50;2.38;;;;;;;11.42;37.40;100690.97;10546713;28;20405;-72
2021/04/25 12:23:07;;;;;;;2.90;2.35;;;;;;;11.27;38.13;100686.06;10527990;28;20040;-71
2021/04/25 12:28:09;;;;;;;3.85;2.05;;;;;;;10.97;37.91;100696.38;10527583;28;20048;-72
2021/04/25 12:33:18;;;;;;;3.63;1.92;;;;;;;10.97;38.88;100691.13;10545326;28;20044;-72
2021/04/25 12:38:31;;;;;;;3.63;2.65;;;;;;;10.48;39.59;100710.59;10546651;28;20417;-71
2021/04/25 12:43:35;;;;;;;3.58;2.70;;;;;;;10.59;40.54;100706.00;10545206;28;20051;-71
2021/04/25 12:48:39;;;;;;;3.88;2.70;;;;;;;10.67;40.18;100715.47;10544256;28;20071;-72
2021/04/25 12:53:45;;;;;;;9.30;2.58;;;;;;;10.15;41.02;100713.88;10544823;28;20169;-72
2021/04/25 12:59:08;;;;;;;3.03;2.33;;;;;;;10.00;41.96;100715.88;10526968;28;20048;-72
2021/04/25 13:04:28;;;;;;;4.20;2.58;;;;;;;9.89;42.61;100720.47;10545479;28;20036;-71
2021/04/25 13:09:29;;;;;;;4.40;2.15;;;;;;;10.17;41.56;100720.81;10545027;28;20485;-72
2021/04/25 13:14:31;;;;;;;3.78;2.33;;;;;;;10.19;42.60;100726.06;10544253;28;20036;-71
2021/04/25 13:19:34;;;;;;;6.07;2.63;;;;;;;10.10;42.84;100727.09;10545147;28;20124;-72
2021/04/25 13:24:35;;;;;;;2.80;2.55;;;;;;;9.68;43.35;100720.84;10544447;28;20101;-71
2021/04/25 13:29:36;;;;;;;6.05;3.22;;;;;;;9.79;43.72;100717.16;10542168;28;20386;-72
2021/04/25 13:34:37;;;;;;;5.30;3.08;;;;;;;9.88;43.74;100729.25;10544279;28;20068;-70
2021/04/25 13:39:39;;;;;;;5.78;2.80;;;;;;;9.96;43.83;100719.50;10526135;28;20397;-70
2021/04/25 13:44:40;;;;;;;6.10;2.55;;;;;;;9.79;42.73;100721.53;10542772;28;20056;-71
2021/04/25 13:49:41;;;;;;;3.97;2.72;;;;;;;9.82;43.08;100721.47;10524657;28;20079;-71
2021/04/25 13:54:43;;;;;;;5.80;3.58;;;;;;;9.88;46.43;100731.03;10542462;28;20063;-70
2021/04/25 13:59:44;;;;;;;3.97;2.50;;;;;;;9.64;44.75;100714.78;10524818;28;20118;-70
2021/04/25 14:04:45;;;;;;;3.92;2.95;;;;;;;9.75;46.89;100706.75;10542612;28;20070;-70
2021/04/25 14:09:46;;;;;;;4.22;2.55;;;;;;;9.78;43.58;100702.31;10543642;28;20474;-71
2021/04/25 14:14:47;;;;;;;4.28;2.67;;;;;;;9.79;43.12;100705.78;10542598;28;20511;-69
2021/04/25 14:19:49;;;;;;;6.10;2.72;;;;;;;9.49;44.87;100709.81;10541987;28;20044;-68
2021/04/25 14:24:50;;;;;;;5.40;2.88;;;;;;;9.36;46.36;100706.50;10524243;28;20040;-68
2021/04/25 14:29:51;;;;;;;4.10;2.58;;;;;;;9.60;45.46;100710.47;10541957;28;20109;-68
2021/04/25 14:34:53;;;;;;;6.72;3.17;;;;;;;9.71;45.11;100697.19;10523759;28;20060;-69
2021/04/25 14:39:54;;;;;;;4.47;3.67;;;;;;;9.75;45.49;100707.59;10540532;28;20533;-68
2021/04/25 14:44:55;;;;;;;3.92;3.30;;;;;;;9.05;45.52;100706.97;10522231;28;20086;-68
2021/04/25 14:49:56;;;;;;;7.22;4.00;;;;;;;8.61;53.18;100728.56;10540013;28;20075;-69
2021/04/25 14:54:57;;;;;;;5.35;4.10;;;;;;;8.53;54.14;100714.69;10540600;28;20108;-68
2021/04/25 14:59:58;;;;;;;5.95;3.45;;;;;;;8.64;56.12;100725.03;10531024;28;20051;-68
2021/04/25 15:05:01;;;;;;;5.30;3.30;;;;;;;8.47;54.67;100713.00;10535806;28;20040;-70
2021/04/25 15:10:03;;;;;;;4.95;3.85;;;;;;;8.79;54.07;100714.34;10536117;28;20405;-69
2021/04/25 15:15:08;;;;;;;3.97;2.83;;;;;;;8.90;52.97;100712.47;10537543;28;20126;-69
2021/04/25 15:20:10;;;;;;;4.57;2.85;;;;;;;9.05;53.33;100717.47;10540082;28;20048;-69
2021/04/25 15:25:12;;;;;;;5.18;2.80;;;;;;;9.18;51.59;100712.03;10523607;28;20048;-69
2021/04/25 15:30:17;;;;;;;4.38;3.00;;;;;;;9.23;49.90;100710.22;10542304;28;20052;-68
2021/04/25 15:35:19;;;;;;;3.80;2.50;;;;;;;8.76;50.17;100717.00;10542296;28;20044;-71
2021/04/25 15:40:22;;;;;;;5.45;2.78;;;;;;;8.85;49.75;100719.50;10541211;28;20060;-72
2021/04/25 15:45:32;;;;;;;4.97;2.65;;;;;;;8.98;49.31;100710.56;10540610;28;20049;-70
2021/04/25 15:50:34;;;;;;;7.15;2.60;;;;;;;9.01;50.55;100713.16;10543452;28;20036;-71
2021/04/25 15:55:36;;;;;;;3.67;2.80;;;;;;;8.88;49.36;100729.09;10547888;28;20048;-69
2021/04/25 16:00:38;;;;;;;5.57;2.40;;;;;;;7.75;54.71;100746.94;10547642;28;20044;-70
2021/04/25 16:05:42;;;;;;;4.18;2.88;;;;;;;7.28;57.18;100769.06;10548704;28;20048;-70
2021/04/25 16:10:43;;;;;;;4.40;3.17;;;;;;;6.96;60.29;100783.22;10548824;28;20456;-69
2021/04/25 16:15:45;;;;;;;4.05;3.65;;;;;;;6.93;62.45;100790.19;10547977;28;20046;-69
2021/04/25 16:20:47;;;;;;;3.58;3.22;;;;;;;6.74;64.36;100794.63;10530190;28;20091;-73
2021/04/25 16:25:48;;;;;;;3.65;3.30;;;;;;;6.66;64.50;100780.72;10547052;28;20044;-72
2021/04/25 16:30:50;;;;;;;3.95;3.33;;;;;;;6.59;64.67;100782.47;10528623;28;20477;-69
2021/04/25 16:35:51;;;;;;;4.25;3.03;;;;;;;6.76;64.11;100787.66;10547203;28;20050;-69
2021/04/25 16:40:53;;;;;;;8.18;4.45;;;;;;;6.62;64.40;100785.09;10546224;28;20548;-69
2021/04/25 16:45:54;;;;;;;4.72;3.42;;;;;;;6.69;63.15;100789.44;10546433;28;20512;-69
2021/04/25 16:50:55;;;;;;;6.43;5.82;;;;;;;6.43;63.90;100784.28;10546215;28;20101;-68
2021/04/25 16:55:57;;;;;;;5.65;4.70;;;;;;;6.53;63.87;100786.00;10548789;28;20051;-69
2021/04/25 17:00:58;;;;;;;4.88;3.67;;;;;;;6.86;61.96;100789.34;10528778;28;20040;-69
2021/04/25 17:05:59;;;;;;;5.57;3.67;;;;;;;6.73;62.65;100785.03;10548033;28;20113;-70
2021/04/25 17:11:01;;;;;;;4.03;3.55;;;;;;;6.95;61.97;100784.09;10547504;28;20044;-71
2021/04/25 17:16:03;;;;;;;4.18;3.30;;;;;;;6.93;61.64;100779.72;10608789;22;20050;-73
2021/04/25 17:21:08;;;;;;;6.57;5.72;;;;;;;6.83;62.94;100777.16;10614206;27;20039;-74
2021/04/25 17:26:10;;;;;;;5.35;4.80;;;;;;;6.83;62.06;100782.38;10612950;27;20051;-74
2021/04/25 17:31:11;;;;;;;6.13;4.60;;;;;;;6.89;61.97;100784.09;10612273;27;20048;-74
2021/04/25 17:36:17;;;;;;;5.20;4.32;;;;;;;6.90;61.66;100783.22;10612162;27;20138;-73
2021/04/25 17:41:19;;;;;;;4.75;3.63;;;;;;;6.68;61.24;100787.66;10594400;27;20504;-74
2021/04/25 17:46:20;;;;;;;4.32;3.92;;;;;;;6.74;61.02;100781.56;10611813;27;20548;-74
2021/04/25 17:51:22;;;;;;;4.78;4.10;;;;;;;6.73;60.33;100782.41;10612110;27;20496;-75
2021/04/25 17:56:27;;;;;;;4.45;3.97;;;;;;;6.93;59.29;100782.34;10612359;27;20043;-75
2021/04/25 18:01:28;;;;;;;4.63;4.20;;;;;;;6.69;59.58;100783.34;10613337;27;20035;-75
2021/04/25 18:06:30;;;;;;;4.00;3.60;;;;;;;6.35;60.25;100777.34;10594442;27;20046;-74
2021/04/25 18:11:32;;;;;;;4.60;3.70;;;;;;;6.33;60.50;100779.97;10595627;27;20039;-75
2021/04/25 18:16:34;;;;;;;5.28;4.00;;;;;;;6.16;60.80;100794.81;10631556;27;20035;-75
2021/04/25 18:21:36;;;;;;;4.28;3.67;;;;;;;6.06;61.21;100800.03;10612605;27;20043;-75
2021/04/25 18:26:38;;;;;;;6.15;4.15;;;;;;;6.22;60.55;100800.88;10612360;27;20460;-75
2021/04/25 18:31:39;;;;;;;5.15;3.92;;;;;;;5.93;61.30;100803.53;10630992;27;20511;-75
2021/04/25 18:36:42;;;;;;;4.40;3.70;;;;;;;5.75;61.87;100801.72;10611938;27;20050;-75
2021/04/25 18:41:44;;;;;;;6.75;4.10;;;;;;;5.65;62.42;100807.81;10612904;27;20039;-76
2021/04/25 18:46:47;;;;;;;4.78;4.00;;;;;;;5.57;62.28;100810.41;10612913;27;20047;-76
2021/04/25 18:52:06;;;;;;;4.68;3.95;;;;;;;5.64;63.22;100806.09;10613257;27;20060;-76
2021/04/25 18:57:07;;;;;;;4.72;3.95;;;;;;;5.54;63.04;100810.44;10600327;28;20054;-76
2021/04/25 19:02:10;;;;;;;4.82;3.95;;;;;;;5.77;62.17;100801.75;10614882;28;20118;-75
2021/04/25 19:07:12;;;;;;;6.95;4.60;;;;;;;5.77;61.99;100802.63;10616086;28;20051;-76
2021/04/25 19:12:13;;;;;;;5.57;4.20;;;;;;;5.45;62.89;100809.56;10597843;28;20051;-74
2021/04/25 19:17:15;;;;;;;8.07;5.15;;;;;;;5.33;63.14;100805.19;10614255;28;20054;-73
2021/04/25 19:22:17;;;;;;;5.10;4.60;;;;;;;5.04;63.49;100811.16;10634695;28;20454;-74
2021/04/25 19:27:19;;;;;;;5.28;4.57;;;;;;;4.79;64.31;100819.78;10637987;27;20039;-74
2021/04/25 19:32:20;;;;;;;6.43;4.97;;;;;;;4.69;64.05;100815.38;10641240;27;20043;-75
2021/04/25 19:37:22;;;;;;;5.13;4.63;;;;;;;4.80;63.03;100811.09;10640763;27;20043;-75
2021/04/25 19:42:23;;;;;;;5.28;4.55;;;;;;;4.89;61.78;100811.13;10641486;27;20130;-74
2021/04/25 19:47:24;;;;;;;5.85;4.93;;;;;;;4.72;62.20;100816.25;10640671;27;20043;-74
2021/04/25 19:52:26;;;;;;;6.35;5.03;;;;;;;4.57;63.78;100823.16;10640990;27;20118;-74
2021/04/25 19:57:27;;;;;;;7.60;6.75;;;;;;;4.39;65.09;100821.31;10621820;27;20118;-76
2021/04/25 20:02:29;;;;;;;9.48;8.32;;;;;;;4.29;65.44;100818.66;10622290;27;20093;-75
2021/04/25 20:07:31;;;;;;;12.48;11.05;;;;;;;4.25;65.57;100818.59;10621122;27;20142;-75
2021/04/25 20:12:35;;;;;;;12.45;11.15;;;;;;;4.19;65.66;100822.03;10620977;27;20074;-75
2021/04/25 20:17:36;;;;;;;9.85;8.63;;;;;;;4.07;65.59;100824.53;10621764;27;20069;-75
2021/04/25 20:22:45;;;;;;;9.68;8.50;;;;;;;4.17;65.29;100817.69;10639601;27;20102;-75
2021/04/25 20:27:46;;;;;;;11.60;7.80;;;;;;;4.14;65.37;100809.88;10620232;27;20047;-75
2021/04/25 20:32:48;;;;;;;6.85;6.25;;;;;;;4.25;64.96;100816.91;10624545;27;20054;-74
2021/04/25 20:37:51;;;;;;;8.52;6.38;;;;;;;3.90;65.54;100815.78;10625961;27;20047;-74
2021/04/25 20:42:54;;;;;;;9.10;6.55;;;;;;;3.90;65.57;100813.16;10623842;27;20495;-75
2021/04/25 20:47:58;;;;;;;6.07;5.47;;;;;;;3.91;65.67;100815.78;10620486;27;20396;-74
2021/04/25 20:53:00;;;;;;;5.82;5.07;;;;;;;4.15;63.64;100807.25;10620571;27;20108;-74
2021/04/25 20:58:02;;;;;;;9.20;5.65;;;;;;;3.68;63.89;100807.78;10620592;27;20039;-75
2021/04/25 21:03:05;;;;;;;8.57;5.97;;;;;;;3.46;64.42;100811.91;10619963;27;20031;-75
2021/04/25 21:08:07;;;;;;;7.60;6.30;;;;;;;3.38;64.18;100810.09;10637567;27;20429;-75
2021/04/25 21:13:09;;;;;;;6.45;5.85;;;;;;;3.38;64.08;100815.28;10602652;27;20039;-74
2021/04/25 21:18:10;;;;;;;6.75;4.95;;;;;;;3.37;63.93;100816.16;10619505;27;20496;-74
2021/04/25 21:23:12;;;;;;;8.70;5.25;;;;;;;3.20;64.21;100826.38;10638467;27;20442;-75
2021/04/25 21:28:13;;;;;;;7.72;5.28;;;;;;;2.93;64.76;100824.34;10619189;27;20391;-75
2021/04/25 21:33:14;;;;;;;9.40;4.15;;;;;;;2.94;64.02;100829.53;10635282;27;20039;-75
2021/04/25 21:38:16;;;;;;;4.40;3.35;;;;;;;2.86;63.71;100827.69;10635434;27;20074;-74
2021/04/25 21:43:18;;;;;;;5.57;3.97;;;;;;;2.87;61.69;100827.72;10616343;27;20066;-74
2021/04/25 21:48:20;;;;;;;6.90;3.70;;;;;;;2.92;61.39;100823.47;10614952;27;20514;-73
2021/04/25 21:53:21;;;;;;;6.55;3.67;;;;;;;2.92;61.12;100819.97;10614436;27;20424;-74
2021/04/25 21:58:22;;;;;;;6.93;3.85;;;;;;;2.87;61.29;100822.50;10631778;27;20146;-76
2021/04/25 22:03:27;;;;;;;14.80;3.63;;;;;;;2.81;60.22;100819.00;10631705;27;20095;-73
2021/04/25 22:08:32;;;;;;;5.07;3.03;;;;;;;3.19;61.73;100832.44;10632660;27;20416;-75
2021/04/25 22:13:36;;;;;;;;;;;;;;;3.33;61.44;100828.25;10614929;27;20437;-74
2021/04/25 22:18:39;;;;;;;6.25;3.28;;;;;;;3.09;61.13;100834.03;10614369;27;20372;-76
2021/04/25 22:23:41;;;;;;;4.60;4.15;;;;;;;2.77;62.16;100829.31;10613174;27;20043;-74
2021/04/25 22:28:46;;;;;;;5.30;4.32;;;;;;;2.73;62.24;100830.13;10629321;27;20047;-74
2021/04/25 22:33:47;;;;;;;5.55;4.10;;;;;;;2.56;62.38;100826.44;10611856;27;20069;-74
2021/04/25 22:38:52;;;;;;;6.60;4.10;;;;;;;2.45;62.39;100826.31;10610430;27;20043;-75
2021/04/25 22:43:57;;;;;;;4.45;3.42;;;;;;;2.27;61.88;100823.47;10628494;27;20035;-74
2021/04/25 22:48:58;;;;;;;4.22;3.83;;;;;;;2.14;62.48;100827.59;10631766;27;20040;-73
2021/04/25 22:54:00;;;;;;;5.47;3.28;;;;;;;1.99;63.06;100806.59;10632194;27;20114;-73
2021/04/25 22:59:01;;;;;;;4.65;4.15;;;;;;;1.93;63.13;100814.28;10633108;27;20050;-73
2021/04/25 23:04:02;;;;;;;4.93;3.83;;;;;;;1.72;64.39;100813.09;10643448;27;20035;-74
2021/04/25 23:09:04;;;;;;;5.22;3.53;;;;;;;1.92;63.77;100804.78;10644057;27;20039;-73
2021/04/25 23:14:05;;;;;;;4.90;2.67;;;;;;;1.86;63.77;100804.66;10634864;22;20077;-68
2021/04/25 23:19:07;;;;;;;4.28;3.00;;;;;;;1.47;64.70;100810.94;10552602;28;20082;-69
2021/04/25 23:24:08;;;;;;;3.53;2.35;;;;;;;1.71;62.64;100800.09;10534619;28;20048;-69
2021/04/25 23:29:09;;;;;;;4.15;2.13;;;;;;;1.36;64.02;100800.38;10552259;28;20119;-69
2021/04/25 23:34:11;;;;;;;2.92;2.42;;;;;;;1.65;63.50;100792.25;10552254;28;20043;-69